createdAt,value
2022-11-21T00:00:39.933Z,28.03
2022-11-21T00:01:39.891Z,28.09
2022-11-21T00:02:39.905Z,27.98
2022-11-21T00:03:39.827Z,28.09
2022-11-21T00:04:39.878Z,28.03
2022-11-21T00:05:39.794Z,28.03
2022-11-21T00:06:39.860Z,28.03
2022-11-21T00:07:39.791Z,27.98
2022-11-21T00:08:39.828Z,28.09
2022-11-21T00:09:39.742Z,28.03
2022-11-21T00:10:39.797Z,27.98
2022-11-21T00:11:39.716Z,28.03
2022-11-21T00:12:39.782Z,28.14
2022-11-21T00:13:39.692Z,28.03
2022-11-21T00:14:39.747Z,28.03
2022-11-21T00:15:39.662Z,27.92
2022-11-21T00:16:39.718Z,28.03
2022-11-21T00:17:39.632Z,28.03
2022-11-21T00:18:39.702Z,27.98
2022-11-21T00:19:39.605Z,28.03
2022-11-21T00:20:39.676Z,27.98
2022-11-21T00:21:39.583Z,28.09
2022-11-21T00:22:39.650Z,28.03
2022-11-21T00:23:39.552Z,28.03
2022-11-21T00:24:39.609Z,27.92
2022-11-21T00:25:39.528Z,27.98
2022-11-21T00:26:39.592Z,28.03
2022-11-21T00:27:39.498Z,28.03
2022-11-21T00:28:39.560Z,28.03
2022-11-21T00:29:39.474Z,28.03
2022-11-21T00:30:39.589Z,27.92
2022-11-21T00:31:39.451Z,28.03
2022-11-21T00:32:39.501Z,28.09
2022-11-21T00:33:39.416Z,28.14
2022-11-21T00:34:39.481Z,28.09
2022-11-21T00:35:39.390Z,28.14
2022-11-21T00:36:39.458Z,27.98
2022-11-21T00:37:39.365Z,28.03
2022-11-21T00:38:39.432Z,27.98
2022-11-21T00:39:39.338Z,28.62
2022-11-21T00:40:39.406Z,28.62
2022-11-21T00:41:39.311Z,28.62
2022-11-21T00:42:39.379Z,28.57
2022-11-21T00:43:39.284Z,28.57
2022-11-21T00:44:39.342Z,28.73
2022-11-21T00:45:39.257Z,28.57
2022-11-21T00:46:39.425Z,28.57
2022-11-21T00:47:39.230Z,28.62
2022-11-21T00:48:39.287Z,28.62
2022-11-21T00:49:39.195Z,29.05
2022-11-21T00:50:39.253Z,28.57
2022-11-21T00:51:39.168Z,28.73
2022-11-21T00:52:39.226Z,29.05
2022-11-21T00:53:39.144Z,28.62
2022-11-21T00:54:39.218Z,29.00
2022-11-21T00:55:39.113Z,28.89
2022-11-21T00:56:39.173Z,28.95
2022-11-21T00:57:39.087Z,29.00
2022-11-21T00:58:39.145Z,29.05
2022-11-21T00:59:39.062Z,29.00
2022-11-21T01:00:39.199Z,29.00
2022-11-21T01:01:39.035Z,29.00
2022-11-21T01:02:39.092Z,29.00
2022-11-21T01:03:39.008Z,29.00
2022-11-21T01:04:39.074Z,29.00
2022-11-21T01:05:38.980Z,29.05
2022-11-21T01:06:39.038Z,28.95
2022-11-21T01:07:39.010Z,29.00
2022-11-21T01:08:39.030Z,29.00
2022-11-21T01:09:38.937Z,29.00
2022-11-21T01:10:39.005Z,28.95
2022-11-21T01:11:38.909Z,29.00
2022-11-21T01:12:38.987Z,29.00
2022-11-21T01:13:38.882Z,29.00
2022-11-21T01:14:38.958Z,29.00
2022-11-21T01:15:38.851Z,29.00
2022-11-21T01:16:38.917Z,29.00
2022-11-21T01:17:38.827Z,29.00
2022-11-21T01:18:38.887Z,29.00
2022-11-21T01:19:38.801Z,29.05
2022-11-21T01:20:38.867Z,29.00
2022-11-21T01:21:38.773Z,29.00
2022-11-21T01:22:38.841Z,29.00
2022-11-21T01:23:38.750Z,28.95
2022-11-21T01:24:38.818Z,28.95
2022-11-21T01:25:38.721Z,29.00
2022-11-21T01:26:38.780Z,29.00
2022-11-21T01:27:38.693Z,29.00
2022-11-21T01:28:38.759Z,29.00
2022-11-21T01:29:38.666Z,29.00
2022-11-21T01:30:38.744Z,29.00
2022-11-21T01:31:38.644Z,29.00
2022-11-21T01:32:38.707Z,29.00
2022-11-21T01:33:38.615Z,29.00
2022-11-21T01:34:38.675Z,29.00
2022-11-21T01:35:38.587Z,29.00
2022-11-21T01:36:38.641Z,29.05
2022-11-21T01:37:38.560Z,29.00
2022-11-21T01:38:38.627Z,29.00
2022-11-21T01:39:38.532Z,29.05
2022-11-21T01:40:38.605Z,29.00
2022-11-21T01:41:38.507Z,29.05
2022-11-21T01:42:38.574Z,29.00
2022-11-21T01:43:38.651Z,29.05
2022-11-21T01:44:38.463Z,28.95
2022-11-21T01:45:38.579Z,29.00
2022-11-21T01:46:38.436Z,28.95
2022-11-21T01:47:38.509Z,28.95
2022-11-21T01:48:38.407Z,29.00
2022-11-21T01:49:38.472Z,28.95
2022-11-21T01:50:38.381Z,29.00
2022-11-21T01:51:38.467Z,28.95
2022-11-21T01:52:38.478Z,29.00
2022-11-21T01:53:38.345Z,29.00
2022-11-21T01:54:38.402Z,29.05
2022-11-21T01:55:38.317Z,29.00
2022-11-21T01:56:38.376Z,29.00
2022-11-21T01:57:38.292Z,29.05
2022-11-21T01:58:38.348Z,29.00
2022-11-21T01:59:38.263Z,29.05
2022-11-21T02:00:38.387Z,29.00
2022-11-21T02:01:38.236Z,29.00
2022-11-21T02:02:38.304Z,29.05
2022-11-21T02:03:38.210Z,29.00
2022-11-21T02:04:38.269Z,29.00
2022-11-21T02:05:38.185Z,29.00
2022-11-21T02:06:38.255Z,29.00
2022-11-21T02:07:38.187Z,29.00
2022-11-21T02:08:38.224Z,29.00
2022-11-21T02:09:38.129Z,29.00
2022-11-21T02:10:38.189Z,29.00
2022-11-21T02:11:38.101Z,29.00
2022-11-21T02:12:38.160Z,29.00
2022-11-21T02:13:38.081Z,29.00
2022-11-21T02:14:38.143Z,29.00
2022-11-21T02:15:38.048Z,28.95
2022-11-21T02:16:38.117Z,28.57
2022-11-21T02:17:38.022Z,28.95
2022-11-21T02:18:38.087Z,29.05
2022-11-21T02:19:37.995Z,29.00
2022-11-21T02:20:38.076Z,29.00
2022-11-21T02:21:37.967Z,29.05
2022-11-21T02:22:38.080Z,28.95
2022-11-21T02:23:37.940Z,29.05
2022-11-21T02:24:38.018Z,28.95
2022-11-21T02:25:37.914Z,29.00
2022-11-21T02:26:37.972Z,28.62
2022-11-21T02:27:37.885Z,29.00
2022-11-21T02:28:37.957Z,28.68
2022-11-21T02:29:37.862Z,28.95
2022-11-21T02:30:37.926Z,28.57
2022-11-21T02:31:37.834Z,28.62
2022-11-21T02:32:37.902Z,28.62
2022-11-21T02:33:37.809Z,29.00
2022-11-21T02:34:37.876Z,28.57
2022-11-21T02:35:37.787Z,28.62
2022-11-21T02:36:37.850Z,28.62
2022-11-21T02:37:37.758Z,28.62
2022-11-21T02:38:37.814Z,28.57
2022-11-21T02:39:37.730Z,28.62
2022-11-21T02:40:37.797Z,29.05
2022-11-21T02:41:37.702Z,28.95
2022-11-21T02:42:37.791Z,28.95
2022-11-21T02:43:37.673Z,29.00
2022-11-21T02:44:37.733Z,28.95
2022-11-21T02:45:37.648Z,28.62
2022-11-21T02:46:37.712Z,28.62
2022-11-21T02:47:37.626Z,29.00
2022-11-21T02:48:37.684Z,28.62
2022-11-21T02:49:37.593Z,28.62
2022-11-21T02:50:37.666Z,28.62
2022-11-21T02:51:37.561Z,29.00
2022-11-21T02:52:37.656Z,28.95
2022-11-21T02:53:37.539Z,28.62
2022-11-21T02:54:37.600Z,28.62
2022-11-21T02:55:37.509Z,28.57
2022-11-21T02:56:37.596Z,28.68
2022-11-21T02:57:37.482Z,28.62
2022-11-21T02:58:37.560Z,28.62
2022-11-21T02:59:37.455Z,28.68
2022-11-21T03:00:37.532Z,28.62
2022-11-21T03:01:37.428Z,28.95
2022-11-21T03:02:37.494Z,28.57
2022-11-21T03:03:37.402Z,28.57
2022-11-21T03:04:37.476Z,28.68
2022-11-21T03:05:37.381Z,28.68
2022-11-21T03:06:37.499Z,28.57
2022-11-21T03:07:37.397Z,28.62
2022-11-21T03:08:37.413Z,28.89
2022-11-21T03:09:37.324Z,28.57
2022-11-21T03:10:37.385Z,28.62
2022-11-21T03:11:37.294Z,28.62
2022-11-21T03:12:37.371Z,28.62
2022-11-21T03:13:37.268Z,28.57
2022-11-21T03:14:37.332Z,28.62
2022-11-21T03:15:37.241Z,28.62
2022-11-21T03:16:37.329Z,28.57
2022-11-21T03:17:37.216Z,28.57
2022-11-21T03:18:37.279Z,28.57
2022-11-21T03:19:37.192Z,28.52
2022-11-21T03:20:37.286Z,28.62
2022-11-21T03:21:37.164Z,28.68
2022-11-21T03:22:37.246Z,28.62
2022-11-21T03:23:37.139Z,28.62
2022-11-21T03:24:37.211Z,28.62
2022-11-21T03:25:37.112Z,28.57
2022-11-21T03:26:37.175Z,28.68
2022-11-21T03:27:37.086Z,28.57
2022-11-21T03:28:37.158Z,28.62
2022-11-21T03:29:37.058Z,28.62
2022-11-21T03:30:37.121Z,28.62
2022-11-21T03:31:37.031Z,28.68
2022-11-21T03:32:37.107Z,28.68
2022-11-21T03:33:37.004Z,28.62
2022-11-21T03:34:37.129Z,28.57
2022-11-21T03:35:36.978Z,28.62
2022-11-21T03:36:37.041Z,28.57
2022-11-21T03:37:36.956Z,28.62
2022-11-21T03:38:37.025Z,28.62
2022-11-21T03:39:36.924Z,28.68
2022-11-21T03:40:36.999Z,28.57
2022-11-21T03:41:36.898Z,28.62
2022-11-21T03:42:36.983Z,28.57
2022-11-21T03:43:36.873Z,28.57
2022-11-21T03:44:36.949Z,28.62
2022-11-21T03:45:36.844Z,28.62
2022-11-21T03:46:36.921Z,28.62
2022-11-21T03:47:36.821Z,28.62
2022-11-21T03:48:36.893Z,28.62
2022-11-21T03:49:36.790Z,28.57
2022-11-21T03:50:36.864Z,28.57
2022-11-21T03:51:36.765Z,28.62
2022-11-21T03:52:36.831Z,28.62
2022-11-21T03:53:36.738Z,28.62
2022-11-21T03:54:36.814Z,28.57
2022-11-21T03:55:36.715Z,28.57
2022-11-21T03:56:36.790Z,28.57
2022-11-21T03:57:36.689Z,28.57
2022-11-21T03:58:36.801Z,28.57
2022-11-21T03:59:36.659Z,28.57
2022-11-21T04:00:36.732Z,28.68
2022-11-21T04:01:37.241Z,28.57
2022-11-21T04:02:36.695Z,28.62
2022-11-21T04:03:36.604Z,28.62
2022-11-21T04:04:36.678Z,28.62
2022-11-21T04:05:36.576Z,28.57
2022-11-21T04:06:36.660Z,28.57
2022-11-21T04:07:36.598Z,28.68
2022-11-21T04:08:37.592Z,28.62
2022-11-21T04:09:36.522Z,28.62
2022-11-21T04:10:36.588Z,28.62
2022-11-21T04:11:36.496Z,28.62
2022-11-21T04:12:36.561Z,28.57
2022-11-21T04:13:36.473Z,28.62
2022-11-21T04:14:36.543Z,28.62
2022-11-21T04:15:37.227Z,28.62
2022-11-21T04:16:36.432Z,28.62
2022-11-21T04:17:36.540Z,28.62
2022-11-21T04:18:36.406Z,28.62
2022-11-21T04:19:36.466Z,28.62
2022-11-21T04:20:36.377Z,28.57
2022-11-21T04:21:36.445Z,28.62
2022-11-21T04:22:36.353Z,28.57
2022-11-21T04:23:36.407Z,28.62
2022-11-21T04:24:36.324Z,28.68
2022-11-21T04:25:36.382Z,28.62
2022-11-21T04:26:36.299Z,28.62
2022-11-21T04:27:36.365Z,28.68
2022-11-21T04:28:36.267Z,28.68
2022-11-21T04:29:36.335Z,28.62
2022-11-21T04:30:36.241Z,28.62
2022-11-21T04:31:36.324Z,28.62
2022-11-21T04:32:36.219Z,28.57
2022-11-21T04:33:36.276Z,28.62
2022-11-21T04:34:36.192Z,28.57
2022-11-21T04:35:36.261Z,28.62
2022-11-21T04:36:36.237Z,28.57
2022-11-21T04:37:36.243Z,28.62
2022-11-21T04:38:36.140Z,28.57
2022-11-21T04:39:36.195Z,28.62
2022-11-21T04:40:36.111Z,28.68
2022-11-21T04:41:36.179Z,28.57
2022-11-21T04:42:36.085Z,28.62
2022-11-21T04:43:36.144Z,28.57
2022-11-21T04:44:36.059Z,28.68
2022-11-21T04:45:36.167Z,28.62
2022-11-21T04:46:36.034Z,28.62
2022-11-21T04:47:36.098Z,28.57
2022-11-21T04:48:36.008Z,28.57
2022-11-21T04:49:36.064Z,28.57
2022-11-21T04:50:35.978Z,28.57
2022-11-21T04:51:36.045Z,28.62
2022-11-21T04:52:35.953Z,28.68
2022-11-21T04:53:39.976Z,28.68
2022-11-21T04:54:35.925Z,28.62
2022-11-21T04:55:36.044Z,28.62
2022-11-21T04:56:35.898Z,28.57
2022-11-21T04:57:35.957Z,28.62
2022-11-21T04:58:35.873Z,28.68
2022-11-21T04:59:35.942Z,28.57
2022-11-21T05:00:35.846Z,28.68
2022-11-21T05:01:35.970Z,28.62
2022-11-21T05:02:35.819Z,28.78
2022-11-21T05:03:35.885Z,28.57
2022-11-21T05:04:35.792Z,28.68
2022-11-21T05:05:35.858Z,28.62
2022-11-21T05:06:35.888Z,28.62
2022-11-21T05:07:35.798Z,28.57
2022-11-21T05:08:35.822Z,28.57
2022-11-21T05:09:35.721Z,28.62
2022-11-21T05:10:35.784Z,28.62
2022-11-21T05:11:35.696Z,28.62
2022-11-21T05:12:35.775Z,28.57
2022-11-21T05:13:35.667Z,28.68
2022-11-21T05:14:35.752Z,28.62
2022-11-21T05:15:35.639Z,28.57
2022-11-21T05:16:35.705Z,28.62
2022-11-21T05:17:35.616Z,28.62
2022-11-21T05:18:35.757Z,28.62
2022-11-21T05:19:35.587Z,28.62
2022-11-21T05:20:36.985Z,28.57
2022-11-21T05:21:35.560Z,28.62
2022-11-21T05:22:35.625Z,28.62
2022-11-21T05:23:35.536Z,28.57
2022-11-21T05:24:35.635Z,28.57
2022-11-21T05:25:35.510Z,28.57
2022-11-21T05:26:35.581Z,28.68
2022-11-21T05:27:35.482Z,28.62
2022-11-21T05:28:35.555Z,28.62
2022-11-21T05:29:35.453Z,28.62
2022-11-21T05:30:35.538Z,28.57
2022-11-21T05:31:35.431Z,28.73
2022-11-21T05:32:35.490Z,28.62
2022-11-21T05:33:35.403Z,28.03
2022-11-21T05:34:35.474Z,28.62
2022-11-21T05:35:40.154Z,28.62
2022-11-21T05:36:36.579Z,28.62
2022-11-21T05:37:35.346Z,28.52
2022-11-21T05:38:35.461Z,28.57
2022-11-21T05:39:35.319Z,28.57
2022-11-21T05:40:35.498Z,28.62
2022-11-21T05:41:35.293Z,28.62
2022-11-21T05:42:35.369Z,28.68
2022-11-21T05:43:35.272Z,28.57
2022-11-21T05:44:35.479Z,28.62
2022-11-21T05:45:35.242Z,28.62
2022-11-21T05:46:35.314Z,28.62
2022-11-21T05:47:35.213Z,28.57
2022-11-21T05:48:35.447Z,28.62
2022-11-21T05:49:35.188Z,28.62
2022-11-21T05:50:35.259Z,28.62
2022-11-21T05:51:35.161Z,28.62
2022-11-21T05:52:35.322Z,28.62
2022-11-21T05:53:35.130Z,28.57
2022-11-21T05:54:37.608Z,28.62
2022-11-21T05:55:35.107Z,28.57
2022-11-21T05:56:35.182Z,28.68
2022-11-21T05:57:35.077Z,28.62
2022-11-21T05:58:35.207Z,28.57
2022-11-21T05:59:35.052Z,28.68
2022-11-21T06:00:35.147Z,28.62
2022-11-21T06:01:35.026Z,28.68
2022-11-21T06:02:38.138Z,28.73
2022-11-21T06:03:34.999Z,28.62
2022-11-21T06:04:35.058Z,28.52
2022-11-21T06:05:34.970Z,28.62
2022-11-21T06:06:36.036Z,28.68
2022-11-21T06:07:35.086Z,28.68
2022-11-21T06:08:34.932Z,28.57
2022-11-21T06:09:35.013Z,28.52
2022-11-21T06:10:35.034Z,28.62
2022-11-21T06:11:34.892Z,29.00
2022-11-21T06:12:34.955Z,28.73
2022-11-21T06:13:34.863Z,28.57
2022-11-21T06:14:34.933Z,28.62
2022-11-21T06:15:35.060Z,28.52
2022-11-21T06:16:34.881Z,28.52
2022-11-21T06:17:38.557Z,28.62
2022-11-21T06:18:34.857Z,28.62
2022-11-21T06:19:34.859Z,28.46
2022-11-21T06:20:34.776Z,28.57
2022-11-21T06:21:34.845Z,28.46
2022-11-21T06:22:34.748Z,28.62
2022-11-21T06:23:34.805Z,28.62
2022-11-21T06:24:34.720Z,28.68
2022-11-21T06:25:34.800Z,28.62
2022-11-21T06:26:34.714Z,28.57
2022-11-21T06:27:34.750Z,28.57
2022-11-21T06:28:34.792Z,28.73
2022-11-21T06:29:34.650Z,28.68
2022-11-21T06:30:34.715Z,28.52
2022-11-21T06:31:34.624Z,28.68
2022-11-21T06:32:34.732Z,28.62
2022-11-21T06:33:34.598Z,28.57
2022-11-21T06:34:34.722Z,28.41
2022-11-21T06:35:34.575Z,28.46
2022-11-21T06:36:34.685Z,28.52
2022-11-21T06:37:34.542Z,28.46
2022-11-21T06:38:34.618Z,28.62
2022-11-21T06:39:34.518Z,28.62
2022-11-21T06:40:40.598Z,28.68
2022-11-21T06:41:34.492Z,28.57
2022-11-21T06:42:34.564Z,28.46
2022-11-21T06:43:34.469Z,28.73
2022-11-21T06:44:34.630Z,28.35
2022-11-21T06:45:34.440Z,28.25
2022-11-21T06:46:34.514Z,28.73
2022-11-21T06:47:34.411Z,28.41
2022-11-21T06:48:34.479Z,28.57
2022-11-21T06:49:34.377Z,28.62
2022-11-21T06:50:34.459Z,28.57
2022-11-21T06:51:34.349Z,28.57
2022-11-21T06:52:34.415Z,28.62
2022-11-21T06:53:34.329Z,28.62
2022-11-21T06:54:34.568Z,28.62
2022-11-21T06:55:34.483Z,28.68
2022-11-21T06:56:34.292Z,28.62
2022-11-21T06:57:34.601Z,28.46
2022-11-21T06:58:34.266Z,28.62
2022-11-21T06:59:34.413Z,28.62
2022-11-21T07:00:34.245Z,28.57
2022-11-21T07:01:34.572Z,28.62
2022-11-21T07:02:34.208Z,28.57
2022-11-21T07:03:39.137Z,28.62
2022-11-21T07:04:34.184Z,28.62
2022-11-21T07:05:34.246Z,28.57
2022-11-21T07:06:38.884Z,28.62
2022-11-21T07:07:34.194Z,28.57
2022-11-21T07:08:34.326Z,28.62
2022-11-21T07:09:34.373Z,28.62
2022-11-21T07:10:34.289Z,28.62
2022-11-21T07:11:34.095Z,28.62
2022-11-21T07:12:34.161Z,28.62
2022-11-21T07:13:34.068Z,28.68
2022-11-21T07:14:34.127Z,28.57
2022-11-21T07:15:34.042Z,28.68
2022-11-21T07:16:34.225Z,28.62
2022-11-21T07:17:34.438Z,28.09
2022-11-21T07:18:33.998Z,28.62
2022-11-21T07:19:38.441Z,28.62
2022-11-21T07:20:33.969Z,28.62
2022-11-21T07:21:34.048Z,28.62
2022-11-21T07:22:34.282Z,28.62
2022-11-21T07:23:33.985Z,28.62
2022-11-21T07:24:34.604Z,28.62
2022-11-21T07:25:36.777Z,28.68
2022-11-21T07:26:37.119Z,28.57
2022-11-21T07:27:33.881Z,28.62
2022-11-21T07:28:33.950Z,28.62
2022-11-21T07:29:33.862Z,28.62
2022-11-21T07:30:33.964Z,28.62
2022-11-21T07:31:33.828Z,28.62
2022-11-21T07:32:33.950Z,28.62
2022-11-21T07:33:33.853Z,28.57
2022-11-21T07:34:33.861Z,28.62
2022-11-21T07:35:33.910Z,28.57
2022-11-21T07:36:33.771Z,28.57
2022-11-21T07:37:33.874Z,28.62
2022-11-21T07:38:33.737Z,28.62
2022-11-21T07:39:34.379Z,28.62
2022-11-21T07:40:33.705Z,28.62
2022-11-21T07:41:35.929Z,28.57
2022-11-21T07:42:33.775Z,28.57
2022-11-21T07:43:33.760Z,28.62
2022-11-21T07:44:33.649Z,28.57
2022-11-21T07:45:37.117Z,28.62
2022-11-21T07:46:33.624Z,28.62
2022-11-21T07:47:33.804Z,28.57
2022-11-21T07:48:33.599Z,28.57
2022-11-21T07:49:33.814Z,28.57
2022-11-21T07:50:33.573Z,28.62
2022-11-21T07:51:39.652Z,28.03
2022-11-21T07:52:33.545Z,28.62
2022-11-21T07:53:39.676Z,28.62
2022-11-21T07:54:37.216Z,28.57
2022-11-21T07:55:39.086Z,28.57
2022-11-21T07:56:33.488Z,28.57
2022-11-21T07:57:33.561Z,28.03
2022-11-21T07:58:39.238Z,28.57
2022-11-21T07:59:33.453Z,28.62
2022-11-21T08:00:33.519Z,28.62
2022-11-21T08:01:33.475Z,28.62
2022-11-21T08:02:39.497Z,28.62
2022-11-21T08:03:33.401Z,28.62
2022-11-21T08:04:37.659Z,28.03
2022-11-21T08:05:33.369Z,28.62
2022-11-21T08:06:33.445Z,28.62
2022-11-21T08:07:36.145Z,28.09
2022-11-21T08:08:39.872Z,28.62
2022-11-21T08:09:38.657Z,28.62
2022-11-21T08:10:37.194Z,28.62
2022-11-21T08:11:34.047Z,28.57
2022-11-21T08:12:35.467Z,28.57
2022-11-21T08:13:33.669Z,28.62
2022-11-21T08:14:33.339Z,28.57
2022-11-21T08:15:35.319Z,28.62
2022-11-21T08:16:33.225Z,28.03
2022-11-21T08:17:37.792Z,28.57
2022-11-21T08:18:33.204Z,28.57
2022-11-21T08:19:36.375Z,28.03
2022-11-21T08:20:33.176Z,28.57
2022-11-21T08:21:37.009Z,27.98
2022-11-21T08:22:33.146Z,28.62
2022-11-21T08:23:35.501Z,28.62
2022-11-21T08:24:33.119Z,28.62
2022-11-21T08:25:33.344Z,28.57
2022-11-21T08:26:33.092Z,28.68
2022-11-21T08:27:38.777Z,28.62
2022-11-21T08:28:33.063Z,28.62
2022-11-21T08:29:41.139Z,28.68
2022-11-21T08:30:33.037Z,28.03
2022-11-21T08:31:36.508Z,28.03
2022-11-21T08:32:33.012Z,28.57
2022-11-21T08:33:33.125Z,28.62
2022-11-21T08:34:39.069Z,28.62
2022-11-21T08:35:32.973Z,28.62
2022-11-21T08:36:33.061Z,28.62
2022-11-21T08:37:39.027Z,28.62
2022-11-21T08:38:32.930Z,28.03
2022-11-21T08:39:33.253Z,28.57
2022-11-21T08:40:32.906Z,28.57
2022-11-21T08:41:35.918Z,28.68
2022-11-21T08:42:32.878Z,28.62
2022-11-21T08:43:38.897Z,28.03
2022-11-21T08:44:37.190Z,28.62
2022-11-21T08:45:32.839Z,28.03
2022-11-21T08:46:37.357Z,28.62
2022-11-21T08:47:38.944Z,28.62
2022-11-21T08:48:32.796Z,28.03
2022-11-21T08:49:36.524Z,28.62
2022-11-21T08:50:40.909Z,28.57
2022-11-21T08:51:32.761Z,28.62
2022-11-21T08:52:32.867Z,28.62
2022-11-21T08:53:38.825Z,28.62
2022-11-21T08:54:38.721Z,28.62
2022-11-21T08:55:42.198Z,28.62
2022-11-21T08:56:35.243Z,28.62
2022-11-21T08:57:33.004Z,28.09
2022-11-21T08:58:32.662Z,28.62
2022-11-21T08:59:32.787Z,28.03
2022-11-21T09:00:32.640Z,28.03
2022-11-21T09:01:38.763Z,28.62
2022-11-21T09:02:32.610Z,28.57
2022-11-21T09:03:38.632Z,28.62
2022-11-21T09:04:32.818Z,28.68
2022-11-21T09:05:32.572Z,28.57
2022-11-21T09:06:33.093Z,28.62
2022-11-21T09:07:32.748Z,28.73
2022-11-21T09:08:32.883Z,27.98
2022-11-21T09:09:33.161Z,28.03
2022-11-21T09:10:32.508Z,28.62
2022-11-21T09:11:32.620Z,27.98
2022-11-21T09:12:32.479Z,28.57
2022-11-21T09:13:33.041Z,28.03
2022-11-21T09:14:32.474Z,28.73
2022-11-21T09:15:33.364Z,28.62
2022-11-21T09:16:32.422Z,28.57
2022-11-21T09:17:32.554Z,28.62
2022-11-21T09:18:32.397Z,28.68
2022-11-21T09:19:34.463Z,28.57
2022-11-21T09:20:32.415Z,28.62
2022-11-21T09:21:32.441Z,28.62
2022-11-21T09:22:32.341Z,28.62
2022-11-21T09:23:32.497Z,28.62
2022-11-21T09:24:32.317Z,28.57
2022-11-21T09:25:32.377Z,28.62
2022-11-21T09:26:32.669Z,28.62
2022-11-21T09:27:32.275Z,28.62
2022-11-21T09:28:33.047Z,28.62
2022-11-21T09:29:32.249Z,28.62
2022-11-21T09:30:35.266Z,28.62
2022-11-21T09:31:32.222Z,28.57
2022-11-21T09:32:35.446Z,28.62
2022-11-21T09:33:36.235Z,28.57
2022-11-21T09:34:32.182Z,28.62
2022-11-21T09:35:32.256Z,28.57
2022-11-21T09:36:32.156Z,28.62
2022-11-21T09:37:32.319Z,28.57
2022-11-21T09:38:32.129Z,28.73
2022-11-21T09:39:34.105Z,28.57
2022-11-21T09:40:32.103Z,28.62
2022-11-21T09:41:33.178Z,28.62
2022-11-21T09:42:32.079Z,28.57
2022-11-21T09:43:34.431Z,28.62
2022-11-21T09:44:32.050Z,28.57
2022-11-21T09:45:32.177Z,28.62
2022-11-21T09:46:32.023Z,28.57
2022-11-21T09:47:36.139Z,28.57
2022-11-21T09:48:31.998Z,28.62
2022-11-21T09:49:36.067Z,28.62
2022-11-21T09:50:35.059Z,28.52
2022-11-21T09:51:34.163Z,28.62
2022-11-21T09:52:32.018Z,28.62
2022-11-21T09:53:36.411Z,28.62
2022-11-21T09:54:31.916Z,28.62
2022-11-21T09:55:31.979Z,28.62
2022-11-21T09:56:31.890Z,28.57
2022-11-21T09:57:35.055Z,28.62
2022-11-21T09:58:31.861Z,28.62
2022-11-21T09:59:34.477Z,28.57
2022-11-21T10:00:31.868Z,29.05
2022-11-21T10:01:32.148Z,29.00
2022-11-21T10:02:31.807Z,29.05
2022-11-21T10:03:32.042Z,28.62
2022-11-21T10:04:32.063Z,28.68
2022-11-21T10:05:40.751Z,28.62
2022-11-21T10:06:31.758Z,28.68
2022-11-21T10:07:32.098Z,28.57
2022-11-21T10:08:31.731Z,28.62
2022-11-21T10:09:31.787Z,28.62
2022-11-21T10:10:31.714Z,28.95
2022-11-21T10:11:31.759Z,28.57
2022-11-21T10:12:31.671Z,28.62
2022-11-21T10:13:31.758Z,28.62
2022-11-21T10:14:31.644Z,28.57
2022-11-21T10:15:31.704Z,28.62
2022-11-21T10:16:31.616Z,28.62
2022-11-21T10:17:34.683Z,28.62
2022-11-21T10:18:34.763Z,29.05
2022-11-21T10:19:31.579Z,28.57
2022-11-21T10:20:31.671Z,28.62
2022-11-21T10:21:31.553Z,28.62
2022-11-21T10:22:34.113Z,28.57
2022-11-21T10:23:31.591Z,28.62
2022-11-21T10:24:31.602Z,28.62
2022-11-21T10:25:31.506Z,28.68
2022-11-21T10:26:31.777Z,28.57
2022-11-21T10:27:34.108Z,28.62
2022-11-21T10:28:31.458Z,28.62
2022-11-21T10:29:34.428Z,28.57
2022-11-21T10:30:31.428Z,28.62
2022-11-21T10:31:31.550Z,28.57
2022-11-21T10:32:31.936Z,28.57
2022-11-21T10:33:34.077Z,29.05
2022-11-21T10:34:31.575Z,28.62
2022-11-21T10:35:38.355Z,28.57
2022-11-21T10:36:31.498Z,28.62
2022-11-21T10:37:31.410Z,28.62
2022-11-21T10:38:37.648Z,28.57
2022-11-21T10:39:31.311Z,28.68
2022-11-21T10:40:32.969Z,28.62
2022-11-21T10:41:34.209Z,28.57
2022-11-21T10:42:31.267Z,28.62
2022-11-21T10:43:31.329Z,28.62
2022-11-21T10:44:31.240Z,28.57
2022-11-21T10:45:33.304Z,28.62
2022-11-21T10:46:31.214Z,28.62
2022-11-21T10:47:31.298Z,28.62
2022-11-21T10:48:31.204Z,28.62
2022-11-21T10:49:31.250Z,28.62
2022-11-21T10:50:31.160Z,28.57
2022-11-21T10:51:32.246Z,28.57
2022-11-21T10:52:31.135Z,28.62
2022-11-21T10:53:31.400Z,28.62
2022-11-21T10:54:31.452Z,28.62
2022-11-21T10:55:31.177Z,28.57
2022-11-21T10:56:31.411Z,28.62
2022-11-21T10:57:31.067Z,28.57
2022-11-21T10:58:31.176Z,28.57
2022-11-21T10:59:31.512Z,28.62
2022-11-21T11:00:34.096Z,28.62
2022-11-21T11:01:31.073Z,28.57
2022-11-21T11:02:31.107Z,28.57
2022-11-21T11:03:31.116Z,28.62
2022-11-21T11:04:35.332Z,28.62
2022-11-21T11:05:31.118Z,28.62
2022-11-21T11:06:31.236Z,28.62
2022-11-21T11:07:31.019Z,28.68
2022-11-21T11:08:31.061Z,28.62
2022-11-21T11:09:30.956Z,28.68
2022-11-21T11:10:30.974Z,28.73
2022-11-21T11:11:30.881Z,28.62
2022-11-21T11:12:30.996Z,28.68
2022-11-21T11:13:47.536Z,28.62
2022-11-21T11:14:31.254Z,28.57
2022-11-21T11:15:30.874Z,28.62
2022-11-21T11:16:30.941Z,28.62
2022-11-21T11:17:30.797Z,28.62
2022-11-21T11:18:31.057Z,28.62
2022-11-21T11:19:38.515Z,28.57
2022-11-21T11:20:30.832Z,28.62
2022-11-21T11:21:31.375Z,28.57
2022-11-21T11:22:30.781Z,28.62
2022-11-21T11:23:31.050Z,28.62
2022-11-21T11:24:30.804Z,28.57
2022-11-21T11:25:30.861Z,28.68
2022-11-21T11:26:30.679Z,28.62
2022-11-21T11:27:31.338Z,28.57
2022-11-21T11:28:30.652Z,28.62
2022-11-21T11:29:31.140Z,28.62
2022-11-21T11:30:30.626Z,28.57
2022-11-21T11:31:30.795Z,28.62
2022-11-21T11:32:30.599Z,28.62
2022-11-21T11:33:30.855Z,28.57
2022-11-21T11:34:30.576Z,28.62
2022-11-21T11:35:30.786Z,28.57
2022-11-21T11:36:30.544Z,28.62
2022-11-21T11:37:33.578Z,28.62
2022-11-21T11:38:30.518Z,28.57
2022-11-21T11:39:30.847Z,28.57
2022-11-21T11:40:30.493Z,28.57
2022-11-21T11:41:30.600Z,28.68
2022-11-21T11:42:30.493Z,28.57
2022-11-21T11:43:30.522Z,28.62
2022-11-21T11:44:30.721Z,28.57
2022-11-21T11:45:30.495Z,28.62
2022-11-21T11:46:30.415Z,28.62
2022-11-21T11:47:31.486Z,28.57
2022-11-21T11:48:30.405Z,28.62
2022-11-21T11:49:34.158Z,28.57
2022-11-21T11:50:30.466Z,28.57
2022-11-21T11:51:31.975Z,28.57
2022-11-21T11:52:30.440Z,28.62
2022-11-21T11:53:30.409Z,28.62
2022-11-21T11:54:30.487Z,28.57
2022-11-21T11:55:30.345Z,28.68
2022-11-21T11:56:30.372Z,28.62
2022-11-21T11:57:30.269Z,28.62
2022-11-21T11:58:30.383Z,28.62
2022-11-21T11:59:31.229Z,28.68
2022-11-21T12:00:30.282Z,28.62
2022-11-21T12:01:30.309Z,28.62
2022-11-21T12:02:30.377Z,28.62
2022-11-21T12:03:30.238Z,28.62
2022-11-21T12:04:30.700Z,28.57
2022-11-21T12:05:30.395Z,28.57
2022-11-21T12:06:57.371Z,28.57
2022-11-21T12:08:44.595Z,28.03
2022-11-21T12:09:30.980Z,28.62
2022-11-21T12:10:30.251Z,28.62
2022-11-21T12:11:30.719Z,28.57
2022-11-21T12:12:30.070Z,28.57
2022-11-21T12:13:30.140Z,28.57
2022-11-21T12:14:30.041Z,28.62
2022-11-21T12:15:30.164Z,28.62
2022-11-21T12:16:30.026Z,28.62
2022-11-21T12:17:30.176Z,28.62
2022-11-21T12:18:29.991Z,28.62
2022-11-21T12:19:30.587Z,28.57
2022-11-21T12:20:29.964Z,28.62
2022-11-21T12:21:30.105Z,28.57
2022-11-21T12:22:30.529Z,28.68
2022-11-21T12:23:29.944Z,28.57
2022-11-21T12:24:29.996Z,28.68
2022-11-21T12:25:29.895Z,28.62
2022-11-21T12:26:30.180Z,28.62
2022-11-21T12:27:29.915Z,28.62
2022-11-21T12:28:30.182Z,28.62
2022-11-21T12:29:30.100Z,28.68
2022-11-21T12:30:30.109Z,28.57
2022-11-21T12:31:32.827Z,28.62
2022-11-21T12:32:29.876Z,28.62
2022-11-21T12:33:29.786Z,28.57
2022-11-21T12:34:29.849Z,28.62
2022-11-21T12:35:30.241Z,28.68
2022-11-21T12:36:29.802Z,28.62
2022-11-21T12:37:29.920Z,28.62
2022-11-21T12:38:29.726Z,28.57
2022-11-21T12:39:30.196Z,28.57
2022-11-21T12:40:29.699Z,28.62
2022-11-21T12:41:29.868Z,28.62
2022-11-21T12:42:29.673Z,28.62
2022-11-21T12:43:29.785Z,28.57
2022-11-21T12:44:29.647Z,28.57
2022-11-21T12:45:29.764Z,28.68
2022-11-21T12:46:29.847Z,28.62
2022-11-21T12:47:30.228Z,28.68
2022-11-21T12:48:29.599Z,27.98
2022-11-21T12:51:17.655Z,28.62
2022-11-21T12:52:18.655Z,28.62
2022-11-21T12:53:19.546Z,28.57
2022-11-21T12:54:19.919Z,28.62
2022-11-21T12:55:20.345Z,28.62